createdAt,value
2023-01-17T00:06:07.962Z,8.3
2023-01-17T00:13:40.288Z,8.3
2023-01-17T00:21:12.615Z,8.3
2023-01-17T00:28:44.922Z,8.0
2023-01-17T00:36:17.243Z,8.0
2023-01-17T00:43:49.555Z,8.0
2023-01-17T00:51:21.879Z,8.0
2023-01-17T00:58:54.203Z,8.0
2023-01-17T01:06:26.576Z,8.0
2023-01-17T01:13:58.884Z,8.0
2023-01-17T01:21:31.253Z,8.0
2023-01-17T01:29:03.948Z,8.6
2023-01-17T01:36:36.259Z,8.6
2023-01-17T01:44:08.575Z,8.6
2023-01-17T01:51:40.898Z,8.6
2023-01-17T01:59:13.222Z,8.6
2023-01-17T02:06:45.535Z,8.6
2023-01-17T02:14:17.828Z,8.6
2023-01-17T02:21:50.155Z,8.6
2023-01-17T02:29:22.469Z,7.5
2023-01-17T02:36:55.275Z,7.5
2023-01-17T02:44:27.632Z,7.5
2023-01-17T02:51:59.941Z,7.5
2023-01-17T02:59:32.263Z,7.5
2023-01-17T03:07:04.568Z,7.5
2023-01-17T03:14:36.889Z,7.5
2023-01-17T03:22:09.197Z,7.5
2023-01-17T03:29:41.519Z,7.0
2023-01-17T03:37:13.825Z,7.0
2023-01-17T03:44:46.124Z,7.0
2023-01-17T03:52:18.425Z,7.0
2023-01-17T03:59:50.758Z,7.0
2023-01-17T04:07:23.372Z,7.0
2023-01-17T04:14:55.683Z,7.0
2023-01-17T04:22:27.985Z,7.0
2023-01-17T04:30:00.293Z,6.6
2023-01-17T04:37:32.605Z,6.6
2023-01-17T04:45:04.930Z,6.6
2023-01-17T04:52:37.245Z,6.6
2023-01-17T05:00:09.575Z,6.6
2023-01-17T05:07:41.876Z,6.6
2023-01-17T05:11:11.628Z,6.6
2023-01-17T05:11:58.946Z,6.6
2023-01-17T05:12:47.471Z,6.6
2023-01-17T05:13:35.090Z,6.6
2023-01-17T05:14:22.632Z,6.6
2023-01-17T05:15:09.978Z,6.6
2023-01-17T05:15:57.344Z,6.6
2023-01-17T05:16:44.695Z,6.6
2023-01-17T05:17:32.035Z,6.6
2023-01-17T05:18:19.516Z,6.6
2023-01-17T05:19:06.869Z,6.6
2023-01-17T05:19:54.204Z,6.6
2023-01-17T05:20:41.527Z,6.0
2023-01-17T05:21:28.865Z,6.0
2023-01-17T05:22:16.172Z,6.0
2023-01-17T05:23:03.488Z,6.0
2023-01-17T05:23:50.809Z,6.0
2023-01-17T05:24:38.144Z,6.0
2023-01-17T05:25:25.425Z,6.0
2023-01-17T05:26:12.947Z,6.0
2023-01-17T05:27:00.375Z,6.0
2023-01-17T05:27:47.689Z,6.0
2023-01-17T05:28:34.977Z,6.0
2023-01-17T05:29:22.291Z,6.0
2023-01-17T05:30:09.609Z,6.0
2023-01-17T05:30:56.967Z,6.0
2023-01-17T05:31:44.307Z,6.0
2023-01-17T05:32:31.637Z,6.0
2023-01-17T05:33:18.968Z,6.0
2023-01-17T05:34:06.276Z,6.0
2023-01-17T05:34:53.602Z,6.0
2023-01-17T05:35:40.922Z,6.0
2023-01-17T05:36:28.225Z,6.0
2023-01-17T05:37:15.550Z,6.0
2023-01-17T05:38:02.859Z,6.0
2023-01-17T05:38:50.192Z,6.0
2023-01-17T05:39:37.538Z,6.0
2023-01-17T05:40:24.853Z,6.0
2023-01-17T05:41:12.180Z,6.0
2023-01-17T05:41:59.524Z,6.0
2023-01-17T05:42:46.886Z,6.0
2023-01-17T05:43:34.216Z,6.0
2023-01-17T05:44:21.526Z,6.0
2023-01-17T05:45:08.835Z,6.0
2023-01-17T05:45:56.188Z,6.0
2023-01-17T05:46:43.529Z,6.0
2023-01-17T05:47:30.846Z,6.0
2023-01-17T05:48:18.180Z,6.0
2023-01-17T05:49:05.521Z,6.0
2023-01-17T05:49:52.834Z,6.0
2023-01-17T05:50:40.167Z,6.0
2023-01-17T05:51:27.532Z,6.0
2023-01-17T05:52:14.852Z,6.0
2023-01-17T05:53:02.169Z,6.0
2023-01-17T05:53:49.492Z,6.0
2023-01-17T05:54:36.809Z,6.0
2023-01-17T05:55:24.117Z,6.0
2023-01-17T05:56:11.435Z,6.0
2023-01-17T05:56:58.777Z,6.0
2023-01-17T05:57:46.072Z,6.0
2023-01-17T05:58:33.395Z,6.0
2023-01-17T05:59:32.370Z,6.0
2023-01-17T06:00:18.012Z,6.0
2023-01-17T06:01:05.424Z,6.0
2023-01-17T06:01:52.743Z,6.0
2023-01-17T06:02:40.189Z,6.0
2023-01-17T06:03:27.610Z,6.0
2023-01-17T06:04:14.940Z,6.0
2023-01-17T06:05:03.512Z,6.0
2023-01-17T06:05:50.936Z,6.0
2023-01-17T06:06:38.281Z,6.0
2023-01-17T06:07:25.616Z,6.0
2023-01-17T06:08:12.954Z,6.0
2023-01-17T06:09:00.353Z,6.0
2023-01-17T06:09:47.679Z,6.0
2023-01-17T06:10:35.007Z,6.0
2023-01-17T06:11:22.432Z,6.0
2023-01-17T06:12:09.747Z,6.0
2023-01-17T06:12:57.137Z,6.0
2023-01-17T06:13:44.500Z,6.0
2023-01-17T06:14:31.862Z,6.0
2023-01-17T06:15:19.182Z,6.0
2023-01-17T06:16:06.656Z,6.0
2023-01-17T06:16:54.012Z,6.0
2023-01-17T06:17:41.312Z,6.0
2023-01-17T06:18:28.741Z,6.0
2023-01-17T06:19:16.066Z,6.0
2023-01-17T06:20:03.423Z,6.0
2023-01-17T06:20:50.820Z,7.9
2023-01-17T06:21:38.386Z,7.9
2023-01-17T06:22:25.697Z,7.9
2023-01-17T06:23:13.135Z,7.9
2023-01-17T06:24:01.553Z,7.9
2023-01-17T06:24:49.992Z,7.9
2023-01-17T06:25:37.457Z,7.9
2023-01-17T06:26:24.813Z,7.9
2023-01-17T06:27:12.136Z,7.9
2023-01-17T06:27:59.564Z,7.9
2023-01-17T06:28:46.875Z,7.9
2023-01-17T06:29:34.239Z,7.9
2023-01-17T06:30:21.621Z,7.9
2023-01-17T06:31:09.037Z,7.9
2023-01-17T06:31:56.560Z,7.9
2023-01-17T06:32:43.933Z,7.9
2023-01-17T06:33:31.348Z,7.9
2023-01-17T06:34:18.680Z,7.9
2023-01-17T06:35:06.073Z,7.9
2023-01-17T06:35:53.399Z,7.9
2023-01-17T06:36:40.718Z,7.9
2023-01-17T06:37:28.160Z,7.9
2023-01-17T06:39:14.041Z,7.9
2023-01-17T06:40:02.177Z,7.9
2023-01-17T06:40:49.615Z,7.9
2023-01-17T06:41:36.915Z,7.9
2023-01-17T06:42:24.260Z,7.9
2023-01-17T06:43:11.728Z,7.9
2023-01-17T06:43:59.026Z,7.9
2023-01-17T06:44:46.351Z,7.9
2023-01-17T06:45:33.781Z,7.9
2023-01-17T06:46:21.147Z,7.9
2023-01-17T06:47:08.505Z,7.9
2023-01-17T06:47:55.904Z,7.9
2023-01-17T06:48:43.222Z,7.9
2023-01-17T06:49:30.566Z,7.9
2023-01-17T06:50:17.992Z,7.9
2023-01-17T06:51:05.318Z,7.9
2023-01-17T06:51:52.639Z,7.9
2023-01-17T06:52:40.093Z,7.9
2023-01-17T06:53:27.411Z,7.9
2023-01-17T06:54:14.722Z,7.9
2023-01-17T06:55:02.204Z,7.9
2023-01-17T06:55:49.533Z,7.9
2023-01-17T06:56:36.869Z,7.9
2023-01-17T06:57:24.284Z,7.9
2023-01-17T06:58:11.582Z,7.9
2023-01-17T06:58:58.914Z,7.9
2023-01-17T06:59:46.354Z,7.9
2023-01-17T07:00:34.139Z,7.9
2023-01-17T07:01:22.054Z,7.9
2023-01-17T07:02:09.474Z,7.9
2023-01-17T07:02:56.888Z,7.9
2023-01-17T07:03:44.393Z,7.9
2023-01-17T07:04:31.741Z,7.9
2023-01-17T07:05:19.144Z,7.9
2023-01-17T07:06:06.480Z,7.9
2023-01-17T07:06:53.814Z,7.9
2023-01-17T07:07:41.188Z,7.9
2023-01-17T07:08:28.518Z,7.9
2023-01-17T07:09:15.841Z,7.9
2023-01-17T07:10:03.244Z,7.9
2023-01-17T07:10:50.545Z,7.9
2023-01-17T07:11:37.875Z,7.9
2023-01-17T07:12:25.325Z,7.9
2023-01-17T07:13:12.642Z,7.9
2023-01-17T07:13:59.968Z,7.9
2023-01-17T07:14:47.382Z,7.9
2023-01-17T07:15:34.720Z,7.9
2023-01-17T07:16:22.105Z,7.9
2023-01-17T07:17:09.492Z,7.9
2023-01-17T07:17:56.808Z,7.9
2023-01-17T07:18:44.151Z,7.9
2023-01-17T07:19:31.581Z,7.9
2023-01-17T07:20:18.890Z,16.9
2023-01-17T07:21:06.221Z,16.9
2023-01-17T07:21:53.645Z,16.9
2023-01-17T07:22:40.948Z,16.9
2023-01-17T07:23:28.319Z,16.9
2023-01-17T07:24:15.723Z,16.9
2023-01-17T07:25:03.082Z,16.9
2023-01-17T07:25:50.406Z,16.9
2023-01-17T07:26:37.997Z,16.9
2023-01-17T07:27:25.340Z,16.9
2023-01-17T07:28:12.700Z,16.9
2023-01-17T07:29:00.112Z,16.9
2023-01-17T07:29:47.475Z,16.9
2023-01-17T07:30:34.793Z,16.9
2023-01-17T07:31:22.276Z,16.9
2023-01-17T07:32:09.666Z,16.9
2023-01-17T07:32:56.993Z,16.9
2023-01-17T07:33:44.407Z,16.9
2023-01-17T07:34:31.760Z,16.9
2023-01-17T07:35:19.115Z,16.9
2023-01-17T07:36:06.503Z,16.9
2023-01-17T07:36:53.805Z,16.9
2023-01-17T07:37:41.123Z,16.9
2023-01-17T07:38:28.548Z,16.9
2023-01-17T07:39:15.853Z,16.9
2023-01-17T07:40:03.181Z,16.9
2023-01-17T07:40:50.600Z,16.9
2023-01-17T07:41:37.909Z,16.9
2023-01-17T07:42:25.234Z,16.9
2023-01-17T07:43:12.663Z,16.9
2023-01-17T07:43:59.992Z,16.9
2023-01-17T07:44:47.287Z,16.9
2023-01-17T07:45:34.753Z,16.9
2023-01-17T07:46:22.117Z,16.9
2023-01-17T07:47:09.439Z,16.9
2023-01-17T07:47:56.859Z,16.9
2023-01-17T07:48:44.197Z,16.9
2023-01-17T07:49:31.520Z,16.9
2023-01-17T07:50:18.925Z,16.9
2023-01-17T07:51:06.255Z,16.9
2023-01-17T07:51:53.694Z,16.9
2023-01-17T07:52:41.081Z,16.9
2023-01-17T07:53:28.498Z,16.9
2023-01-17T07:54:15.876Z,16.9
2023-01-17T07:55:03.266Z,16.9
2023-01-17T07:55:50.590Z,16.9
2023-01-17T07:56:37.947Z,16.9
2023-01-17T07:57:25.329Z,16.9
2023-01-17T07:58:12.677Z,16.9
2023-01-17T07:59:00.040Z,16.9
2023-01-17T07:59:47.446Z,16.9
2023-01-17T08:00:34.770Z,16.9
2023-01-17T08:01:22.211Z,16.9
2023-01-17T08:02:09.638Z,16.9
2023-01-17T08:02:56.971Z,16.9
2023-01-17T08:03:44.425Z,16.9
2023-01-17T08:04:31.812Z,16.9
2023-01-17T08:05:19.130Z,16.9
2023-01-17T08:06:06.459Z,16.9
2023-01-17T08:06:53.868Z,16.9
2023-01-17T08:07:41.191Z,16.9
2023-01-17T08:08:28.518Z,16.9
2023-01-17T08:09:15.909Z,16.9
2023-01-17T08:10:03.216Z,16.9
2023-01-17T08:10:50.540Z,16.9
2023-01-17T08:11:37.943Z,16.9
2023-01-17T08:12:25.280Z,16.9
2023-01-17T08:13:12.602Z,16.9
2023-01-17T08:14:00.082Z,16.9
2023-01-17T08:14:47.489Z,16.9
2023-01-17T08:15:34.828Z,16.9
2023-01-17T08:16:22.334Z,16.9
2023-01-17T08:17:09.641Z,16.9
2023-01-17T08:17:56.936Z,16.9
2023-01-17T08:18:44.385Z,16.9
2023-01-17T08:19:31.707Z,16.9
2023-01-17T08:20:19.045Z,16.5
2023-01-17T08:21:06.434Z,16.5
2023-01-17T08:21:53.762Z,16.5
2023-01-17T08:22:41.073Z,16.5
2023-01-17T08:23:28.502Z,16.5
2023-01-17T08:24:15.844Z,16.5
2023-01-17T08:25:03.170Z,16.5
2023-01-17T08:25:50.815Z,16.5
2023-01-17T08:26:38.131Z,16.5
2023-01-17T08:27:25.533Z,16.5
2023-01-17T08:28:12.866Z,16.5
2023-01-17T08:29:00.190Z,16.5
2023-01-17T08:29:47.536Z,16.5
2023-01-17T08:30:34.951Z,16.5
2023-01-17T08:31:22.382Z,16.5
2023-01-17T08:32:09.756Z,16.5
2023-01-17T08:32:57.180Z,16.5
2023-01-17T08:33:44.665Z,16.5
2023-01-17T08:34:32.011Z,16.5
2023-01-17T08:35:19.415Z,16.5
2023-01-17T08:36:06.742Z,16.5
2023-01-17T08:36:54.063Z,16.5
2023-01-17T08:37:41.469Z,16.5
2023-01-17T08:38:28.758Z,16.5
2023-01-17T08:39:16.063Z,16.5
2023-01-17T08:40:03.519Z,16.5
2023-01-17T08:40:50.849Z,16.5
2023-01-17T08:41:38.173Z,16.5
2023-01-17T08:42:25.630Z,16.5
2023-01-17T08:43:12.936Z,16.5
2023-01-17T08:44:00.253Z,16.5
2023-01-17T08:44:47.679Z,16.5
2023-01-17T08:45:35.022Z,16.5
2023-01-17T08:46:22.353Z,16.5
2023-01-17T08:47:09.775Z,16.5
2023-01-17T08:47:57.124Z,16.5
2023-01-17T08:48:44.457Z,16.5
2023-01-17T08:49:31.889Z,16.5
2023-01-17T08:50:21.683Z,16.5
2023-01-17T08:51:09.023Z,16.5
2023-01-17T08:51:56.453Z,16.5
2023-01-17T08:52:43.806Z,16.5
2023-01-17T08:53:31.164Z,16.5
2023-01-17T08:54:18.589Z,16.5
2023-01-17T08:55:05.943Z,16.5
2023-01-17T08:55:53.270Z,16.5
2023-01-17T08:56:40.703Z,16.5
2023-01-17T08:57:28.347Z,16.5
2023-01-17T08:58:15.698Z,16.5
2023-01-17T08:59:03.157Z,16.5
2023-01-17T08:59:50.490Z,16.5
2023-01-17T09:00:37.812Z,16.5
2023-01-17T09:01:25.378Z,16.5
2023-01-17T09:02:12.781Z,16.5
2023-01-17T09:03:00.108Z,16.5
2023-01-17T09:03:47.508Z,16.5
2023-01-17T09:04:34.856Z,16.5
2023-01-17T09:05:22.192Z,16.5
2023-01-17T09:06:09.629Z,16.5
2023-01-17T09:06:56.942Z,16.5
2023-01-17T09:07:44.265Z,16.5
2023-01-17T09:08:34.754Z,16.5
2023-01-17T09:09:22.085Z,16.5
2023-01-17T09:10:09.473Z,16.5
2023-01-17T09:10:56.807Z,16.5
2023-01-17T09:11:44.136Z,16.5
2023-01-17T09:12:31.497Z,16.5
2023-01-17T09:13:18.816Z,16.5
2023-01-17T09:14:06.134Z,16.5
2023-01-17T09:14:53.595Z,16.5
2023-01-17T09:15:40.947Z,16.5
2023-01-17T09:16:28.293Z,16.5
2023-01-17T09:17:15.689Z,16.5
2023-01-17T09:18:03.014Z,16.5
2023-01-17T09:18:50.316Z,16.5
2023-01-17T09:19:37.732Z,16.5
2023-01-17T09:20:25.083Z,18.3
2023-01-17T09:21:12.447Z,18.3
2023-01-17T09:21:59.844Z,18.3
2023-01-17T09:22:47.178Z,18.3
2023-01-17T09:23:34.484Z,18.3
2023-01-17T09:24:21.934Z,18.3
2023-01-17T09:25:09.265Z,18.3
2023-01-17T09:25:56.602Z,18.3
2023-01-17T09:26:44.056Z,18.3
2023-01-17T09:27:31.403Z,18.3
2023-01-17T09:28:18.732Z,18.3
2023-01-17T09:29:06.141Z,18.3
2023-01-17T09:29:53.476Z,18.3
2023-01-17T09:30:40.808Z,18.3
2023-01-17T09:31:28.213Z,18.3
2023-01-17T09:32:15.557Z,18.3
2023-01-17T09:33:02.888Z,18.3
2023-01-17T09:33:50.282Z,18.3
2023-01-17T09:34:37.637Z,18.3
2023-01-17T09:35:24.984Z,18.3
2023-01-17T09:36:12.322Z,18.3
2023-01-17T09:36:59.641Z,18.3
2023-01-17T09:37:46.965Z,18.3
2023-01-17T09:38:34.374Z,18.3
2023-01-17T09:39:21.690Z,18.3
2023-01-17T09:40:09.020Z,18.3
2023-01-17T09:40:56.412Z,18.3
2023-01-17T09:41:43.738Z,18.3
2023-01-17T09:42:31.051Z,18.3
2023-01-17T09:43:18.528Z,18.3
2023-01-17T09:44:05.856Z,18.3
2023-01-17T09:44:53.198Z,18.3
2023-01-17T09:45:40.610Z,18.3
2023-01-17T09:46:28.006Z,18.3
2023-01-17T09:47:15.571Z,18.3
2023-01-17T09:48:03.031Z,18.3
2023-01-17T09:48:50.452Z,18.3
2023-01-17T09:49:37.768Z,18.3
2023-01-17T09:50:25.142Z,18.3
2023-01-17T09:51:12.461Z,18.3
2023-01-17T09:51:59.788Z,18.3
2023-01-17T09:52:47.143Z,18.3
2023-01-17T09:53:34.506Z,18.3
2023-01-17T09:54:21.884Z,18.3
2023-01-17T09:55:09.220Z,18.3
2023-01-17T09:55:56.545Z,18.3
2023-01-17T09:56:44.053Z,18.3
2023-01-17T09:57:31.432Z,18.3
2023-01-17T09:58:18.781Z,18.3
2023-01-17T09:59:06.109Z,18.3
2023-01-17T10:00:02.927Z,18.3
2023-01-17T10:00:50.733Z,18.3
2023-01-17T10:01:38.343Z,18.3
2023-01-17T10:02:26.707Z,18.3
2023-01-17T10:03:14.287Z,18.3
2023-01-17T10:04:01.791Z,18.3
2023-01-17T10:04:49.156Z,18.3
2023-01-17T10:05:36.531Z,18.3
2023-01-17T10:06:23.867Z,18.3
2023-01-17T10:07:11.213Z,18.3
2023-01-17T10:07:58.544Z,18.3
2023-01-17T10:08:45.868Z,18.3
2023-01-17T10:09:33.245Z,18.3
2023-01-17T10:10:20.654Z,18.3
2023-01-17T10:11:08.093Z,18.3
2023-01-17T10:11:55.427Z,18.3
2023-01-17T10:12:42.782Z,18.3
2023-01-17T10:13:30.079Z,18.3
2023-01-17T10:14:17.399Z,18.3
2023-01-17T10:15:04.731Z,18.3
2023-01-17T10:15:52.053Z,18.3
2023-01-17T10:16:39.439Z,18.3
2023-01-17T10:17:26.836Z,18.3
2023-01-17T10:18:28.806Z,18.3
2023-01-17T10:19:11.468Z,18.3
2023-01-17T10:19:58.877Z,18.3
2023-01-17T10:20:46.197Z,19.9
2023-01-17T10:21:33.516Z,19.9
2023-01-17T10:22:20.975Z,19.9
2023-01-17T10:23:08.359Z,19.9
2023-01-17T10:23:55.668Z,19.9
2023-01-17T10:24:43.068Z,19.9
2023-01-17T10:25:30.672Z,19.9
2023-01-17T10:26:18.039Z,19.9
2023-01-17T10:27:05.628Z,19.9
2023-01-17T10:27:52.961Z,19.9
2023-01-17T10:28:40.329Z,19.9
2023-01-17T10:29:27.686Z,19.9
2023-01-17T10:30:15.060Z,19.9
2023-01-17T10:31:02.449Z,19.9
2023-01-17T10:31:49.811Z,19.9
2023-01-17T10:32:37.120Z,19.9
2023-01-17T10:33:24.436Z,19.9
2023-01-17T10:34:11.846Z,19.9
2023-01-17T10:34:59.198Z,19.9
2023-01-17T10:35:46.512Z,19.9
2023-01-17T10:36:33.920Z,19.9
2023-01-17T10:37:21.273Z,19.9
2023-01-17T10:38:08.589Z,19.9
2023-01-17T10:38:55.989Z,19.9
2023-01-17T10:39:43.321Z,19.9
2023-01-17T10:40:30.626Z,19.9
2023-01-17T10:41:18.063Z,19.9
2023-01-17T10:42:05.401Z,19.9
2023-01-17T10:42:52.726Z,19.9
2023-01-17T10:43:40.154Z,19.9
2023-01-17T10:44:27.477Z,19.9
2023-01-17T10:45:14.786Z,19.9
2023-01-17T10:46:02.317Z,19.9
2023-01-17T10:46:49.655Z,19.9
2023-01-17T10:47:36.977Z,19.9
2023-01-17T10:48:24.390Z,19.9
2023-01-17T10:49:11.703Z,19.9
2023-01-17T10:49:59.007Z,19.9
2023-01-17T10:50:46.489Z,19.9
2023-01-17T10:51:33.810Z,19.9
2023-01-17T10:52:21.107Z,19.9
2023-01-17T10:53:08.620Z,19.9
2023-01-17T10:53:55.984Z,19.9
2023-01-17T10:54:43.320Z,19.9
2023-01-17T10:55:30.755Z,19.9
2023-01-17T10:56:18.085Z,19.9
2023-01-17T10:57:05.411Z,19.9
2023-01-17T10:57:52.887Z,19.9
2023-01-17T10:58:40.232Z,19.9
2023-01-17T10:59:27.563Z,19.9
2023-01-17T11:00:14.991Z,19.9
2023-01-17T11:01:02.397Z,19.9
2023-01-17T11:01:51.226Z,19.9
2023-01-17T11:02:38.814Z,19.9
2023-01-17T11:03:26.181Z,19.9
2023-01-17T11:04:13.496Z,19.9
2023-01-17T11:05:00.831Z,19.9
2023-01-17T11:05:48.231Z,19.9
2023-01-17T11:06:37.893Z,19.9
2023-01-17T11:07:30.857Z,19.9
2023-01-17T11:08:18.246Z,19.9
2023-01-17T11:09:05.568Z,19.9
2023-01-17T11:09:52.885Z,19.9
2023-01-17T11:10:40.317Z,19.9
2023-01-17T11:11:27.636Z,19.9
2023-01-17T11:12:14.983Z,19.9
2023-01-17T11:13:02.442Z,19.9
2023-01-17T11:13:49.752Z,19.9
2023-01-17T11:14:37.076Z,19.9
2023-01-17T11:15:24.509Z,19.9
2023-01-17T11:16:11.876Z,19.9
2023-01-17T11:16:59.242Z,19.9
2023-01-17T11:17:46.651Z,19.9
2023-01-17T11:18:33.965Z,19.9
2023-01-17T11:19:21.294Z,19.9
2023-01-17T11:20:08.684Z,18.0
2023-01-17T11:20:55.999Z,18.0
2023-01-17T11:21:45.053Z,18.0
2023-01-17T11:22:33.039Z,18.0
2023-01-17T11:23:20.370Z,18.0
2023-01-17T11:24:07.728Z,18.0
2023-01-17T11:24:55.066Z,18.0
2023-01-17T11:25:42.466Z,18.0
2023-01-17T11:26:29.789Z,18.0
2023-01-17T11:34:02.122Z,18.0
2023-01-17T11:41:34.460Z,18.0
2023-01-17T11:49:06.793Z,18.0
2023-01-17T11:49:54.187Z,18.0
2023-01-17T11:50:41.574Z,18.0
2023-01-17T11:51:28.940Z,18.0
2023-01-17T11:52:16.246Z,18.0
2023-01-17T11:53:03.796Z,18.0
2023-01-17T11:53:51.143Z,18.0
2023-01-17T11:54:38.478Z,18.0
2023-01-17T11:55:25.893Z,18.0
2023-01-17T11:56:13.240Z,18.0
2023-01-17T11:57:00.566Z,18.0
2023-01-17T11:57:48.006Z,18.0
2023-01-17T11:58:35.330Z,18.0
2023-01-17T11:59:22.650Z,18.0
2023-01-17T12:00:10.101Z,18.0
2023-01-17T12:00:57.458Z,18.0
2023-01-17T12:01:44.782Z,18.0
2023-01-17T12:02:32.276Z,18.0
2023-01-17T12:03:19.672Z,18.0
2023-01-17T12:04:07.101Z,18.0
2023-01-17T12:04:54.567Z,18.0
2023-01-17T12:05:41.918Z,18.0
2023-01-17T12:06:29.236Z,18.0
2023-01-17T12:07:16.624Z,18.0
2023-01-17T12:08:03.942Z,18.0
2023-01-17T12:08:51.314Z,18.0
2023-01-17T12:09:38.832Z,18.0
2023-01-17T12:10:26.189Z,18.0
2023-01-17T12:11:13.499Z,18.0
2023-01-17T12:12:00.896Z,18.0
2023-01-17T12:12:48.238Z,18.0
2023-01-17T12:13:35.569Z,18.0
2023-01-17T12:14:22.971Z,18.0
2023-01-17T12:15:10.304Z,18.0
2023-01-17T12:16:00.249Z,18.0
2023-01-17T12:16:47.620Z,18.0
2023-01-17T12:17:34.959Z,18.0
2023-01-17T12:18:22.316Z,18.0
2023-01-17T12:19:09.630Z,18.0
2023-01-17T12:19:57.086Z,18.0
2023-01-17T12:20:44.412Z,11.8
2023-01-17T12:21:31.749Z,11.8
2023-01-17T12:22:19.168Z,11.8
2023-01-17T12:23:06.544Z,11.8
2023-01-17T12:23:53.880Z,11.8
2023-01-17T12:24:41.292Z,11.8
2023-01-17T12:25:28.628Z,11.8
2023-01-17T12:26:15.930Z,11.8
2023-01-17T12:27:03.376Z,11.8
2023-01-17T12:27:50.720Z,11.8
2023-01-17T12:28:38.051Z,11.8
2023-01-17T12:29:25.466Z,11.8
2023-01-17T12:30:12.804Z,11.8
2023-01-17T12:31:00.185Z,11.8
2023-01-17T12:31:47.676Z,11.8
2023-01-17T12:32:35.014Z,11.8
2023-01-17T12:33:22.380Z,11.8
2023-01-17T12:34:09.794Z,11.8
2023-01-17T12:34:57.581Z,11.8
2023-01-17T12:35:44.924Z,11.8
2023-01-17T12:36:32.328Z,11.8
2023-01-17T12:37:19.681Z,11.8
2023-01-17T12:38:07.003Z,11.8
2023-01-17T12:38:54.444Z,11.8
2023-01-17T12:39:41.765Z,11.8
2023-01-17T12:40:29.080Z,11.8
2023-01-17T12:41:16.505Z,11.8
2023-01-17T12:42:03.858Z,11.8
2023-01-17T12:42:51.165Z,11.8
2023-01-17T12:43:38.562Z,11.8
2023-01-17T12:44:25.873Z,11.8
2023-01-17T12:45:13.230Z,11.8
2023-01-17T12:46:00.622Z,11.8
2023-01-17T12:46:47.939Z,11.8
2023-01-17T12:47:35.243Z,11.8
2023-01-17T12:48:22.655Z,11.8
2023-01-17T12:49:09.998Z,11.8
2023-01-17T12:49:57.327Z,11.8
2023-01-17T12:50:44.739Z,11.8
2023-01-17T12:51:32.063Z,11.8
2023-01-17T12:52:19.381Z,11.8
2023-01-17T12:53:06.790Z,11.8
2023-01-17T12:53:54.146Z,11.8
2023-01-17T12:54:41.463Z,11.8
2023-01-17T12:55:28.864Z,11.8
2023-01-17T12:56:16.325Z,11.8
2023-01-17T12:57:03.895Z,11.8
2023-01-17T12:57:51.209Z,11.8
2023-01-17T12:58:38.488Z,11.8
2023-01-17T12:59:25.811Z,11.8
2023-01-17T13:00:13.274Z,11.8
2023-01-17T13:01:01.644Z,11.8
2023-01-17T13:01:49.257Z,11.8
2023-01-17T13:02:37.164Z,11.8
2023-01-17T13:03:24.528Z,11.8
2023-01-17T13:04:11.861Z,11.8
2023-01-17T13:04:59.348Z,11.8
2023-01-17T13:05:46.726Z,11.8
2023-01-17T13:06:34.036Z,11.8
2023-01-17T13:07:21.359Z,11.8
2023-01-17T13:08:08.785Z,11.8
2023-01-17T13:08:56.179Z,11.8
2023-01-17T13:09:43.535Z,11.8
2023-01-17T13:10:31.904Z,11.8
2023-01-17T13:11:19.335Z,11.8
2023-01-17T13:12:06.652Z,11.8
2023-01-17T13:12:53.974Z,11.8
2023-01-17T13:13:41.382Z,11.8
2023-01-17T13:14:29.137Z,11.8
2023-01-17T13:15:16.441Z,11.8
2023-01-17T13:16:03.963Z,11.8
2023-01-17T13:16:51.313Z,11.8
2023-01-17T13:17:38.593Z,11.8
2023-01-17T13:18:26.124Z,11.8
2023-01-17T13:19:13.455Z,11.8
2023-01-17T13:20:01.223Z,11.8
2023-01-17T13:20:48.537Z,9.0
2023-01-17T13:21:35.925Z,9.0
2023-01-17T13:22:23.295Z,9.0
2023-01-17T13:23:10.622Z,9.0
2023-01-17T13:23:57.924Z,9.0
2023-01-17T13:24:45.264Z,9.0
2023-01-17T13:25:32.607Z,9.0
2023-01-17T13:26:19.912Z,9.0
2023-01-17T13:27:07.264Z,9.0
2023-01-17T13:27:54.624Z,9.0
2023-01-17T13:28:41.937Z,9.0
2023-01-17T13:29:29.266Z,9.0
2023-01-17T13:30:16.634Z,9.0
2023-01-17T13:31:04.035Z,9.0
2023-01-17T13:31:51.500Z,9.0
2023-01-17T13:32:38.835Z,9.0
2023-01-17T13:33:26.138Z,9.0
2023-01-17T13:34:13.456Z,9.0
2023-01-17T13:35:01.774Z,9.0
2023-01-17T13:35:49.171Z,9.0
2023-01-17T13:36:36.774Z,9.0
2023-01-17T13:37:24.165Z,9.0
2023-01-17T13:38:11.499Z,9.0
2023-01-17T13:38:58.876Z,9.0
2023-01-17T13:39:46.732Z,9.0
2023-01-17T13:40:34.093Z,9.0
2023-01-17T13:41:21.453Z,9.0
2023-01-17T13:42:08.799Z,9.0
2023-01-17T13:42:56.161Z,9.0
2023-01-17T13:43:43.551Z,9.0
2023-01-17T13:44:30.859Z,9.0
2023-01-17T13:45:18.164Z,9.0
2023-01-17T13:46:05.611Z,9.0
2023-01-17T13:46:52.923Z,9.0
2023-01-17T13:47:40.239Z,9.0
2023-01-17T13:48:27.659Z,9.0
2023-01-17T13:49:14.997Z,9.0
2023-01-17T13:50:02.330Z,9.0
2023-01-17T13:50:49.793Z,9.0
2023-01-17T13:51:37.097Z,9.0
2023-01-17T13:52:24.435Z,9.0
2023-01-17T13:53:11.848Z,9.0
2023-01-17T13:53:59.309Z,9.0
2023-01-17T13:54:46.639Z,9.0
2023-01-17T13:55:34.081Z,9.0
2023-01-17T13:56:21.581Z,9.0
2023-01-17T13:57:08.923Z,9.0
2023-01-17T13:57:56.333Z,9.0
2023-01-17T13:58:43.676Z,9.0
2023-01-17T13:59:31.027Z,9.0
2023-01-17T14:00:18.402Z,9.0
2023-01-17T14:01:05.828Z,9.0
2023-01-17T14:01:53.509Z,9.0
2023-01-17T14:02:40.923Z,9.0
2023-01-17T14:03:28.321Z,9.0
2023-01-17T14:04:15.665Z,9.0
2023-01-17T14:05:03.059Z,9.0
2023-01-17T14:05:50.364Z,9.0
2023-01-17T14:06:37.681Z,9.0
2023-01-17T14:07:24.988Z,9.0
2023-01-17T14:08:12.337Z,9.0
2023-01-17T14:08:59.696Z,9.0
2023-01-17T14:09:46.982Z,9.0
2023-01-17T14:10:34.322Z,9.0
2023-01-17T14:11:21.663Z,9.0
2023-01-17T14:12:08.998Z,9.0
2023-01-17T14:12:56.296Z,9.0
2023-01-17T14:13:43.673Z,9.0
2023-01-17T14:14:30.962Z,9.0
2023-01-17T14:15:18.276Z,9.0
2023-01-17T14:16:05.605Z,9.0
2023-01-17T14:16:52.996Z,9.0
2023-01-17T14:17:40.321Z,9.0
2023-01-17T14:18:27.735Z,9.0
2023-01-17T14:19:15.061Z,9.0
2023-01-17T14:20:02.427Z,9.0
2023-01-17T14:20:49.781Z,8.3
2023-01-17T14:21:37.188Z,8.3
2023-01-17T14:22:24.511Z,8.3
2023-01-17T14:23:11.934Z,8.3
2023-01-17T14:23:59.270Z,8.3
2023-01-17T14:24:46.664Z,8.3
2023-01-17T14:25:34.018Z,8.3
2023-01-17T14:26:21.326Z,8.3
2023-01-17T14:27:08.639Z,8.3
2023-01-17T14:27:55.976Z,8.3
2023-01-17T14:28:43.308Z,8.3
2023-01-17T14:29:30.669Z,8.3
2023-01-17T14:30:17.992Z,8.3
2023-01-17T14:31:05.311Z,8.3
2023-01-17T14:31:52.676Z,8.3
2023-01-17T14:32:40.022Z,8.3
2023-01-17T14:33:27.348Z,8.3
2023-01-17T14:34:15.112Z,8.3
2023-01-17T14:35:02.570Z,8.3
2023-01-17T14:35:49.904Z,8.3
2023-01-17T14:36:37.229Z,8.3
2023-01-17T14:37:24.543Z,8.3
2023-01-17T14:38:11.859Z,8.3
2023-01-17T14:38:59.156Z,8.3
2023-01-17T14:39:46.516Z,8.3
2023-01-17T14:40:33.854Z,8.3
2023-01-17T14:41:21.147Z,8.3
2023-01-17T14:42:08.464Z,8.3
2023-01-17T14:42:55.772Z,8.3
2023-01-17T14:43:43.100Z,8.3
2023-01-17T14:44:30.909Z,8.3
2023-01-17T14:45:19.180Z,8.3
2023-01-17T14:46:06.575Z,8.3
2023-01-17T14:46:53.909Z,8.3
2023-01-17T14:47:41.214Z,8.3
2023-01-17T14:48:28.531Z,8.3
2023-01-17T14:49:15.852Z,8.3
2023-01-17T14:50:03.184Z,8.3
2023-01-17T14:50:50.524Z,8.3
2023-01-17T14:51:37.839Z,8.3
2023-01-17T14:52:25.315Z,8.3
2023-01-17T14:53:12.722Z,8.3
2023-01-17T14:54:00.046Z,8.3
2023-01-17T14:54:47.438Z,8.3
2023-01-17T14:55:34.761Z,8.3
2023-01-17T14:56:22.092Z,8.3
2023-01-17T14:57:09.417Z,8.3
2023-01-17T14:57:56.835Z,8.3
2023-01-17T14:58:44.252Z,8.3
2023-01-17T14:59:31.863Z,8.3
2023-01-17T15:00:19.216Z,8.3
2023-01-17T15:01:06.640Z,8.3
2023-01-17T15:02:06.580Z,8.3
2023-01-17T15:02:51.351Z,8.3
2023-01-17T15:03:38.707Z,8.3
2023-01-17T15:04:26.523Z,8.3
2023-01-17T15:05:13.872Z,8.3
2023-01-17T15:06:02.988Z,8.3
2023-01-17T15:06:51.543Z,8.3
2023-01-17T15:07:38.969Z,8.3
2023-01-17T15:08:26.351Z,8.3
2023-01-17T15:09:13.680Z,8.3
2023-01-17T15:10:01.046Z,8.3
2023-01-17T15:10:48.384Z,8.3
2023-01-17T15:11:35.729Z,8.3
2023-01-17T15:12:23.102Z,8.3
2023-01-17T15:13:10.429Z,8.3
2023-01-17T15:13:57.741Z,8.3
2023-01-17T15:14:45.168Z,8.3
2023-01-17T15:15:32.498Z,8.3
2023-01-17T15:16:19.829Z,8.3
2023-01-17T15:17:07.243Z,8.3
2023-01-17T15:17:54.578Z,8.3
2023-01-17T15:18:42.700Z,8.3
2023-01-17T15:19:30.153Z,8.3
2023-01-17T15:20:17.469Z,11.6
2023-01-17T15:21:05.110Z,11.6
2023-01-17T15:21:52.453Z,11.6
2023-01-17T15:22:39.844Z,11.6
2023-01-17T15:23:27.149Z,11.6
2023-01-17T15:24:14.483Z,11.6
2023-01-17T15:25:01.867Z,11.6
2023-01-17T15:25:49.189Z,11.6
2023-01-17T15:26:36.522Z,11.6
2023-01-17T15:27:23.993Z,11.6
2023-01-17T15:28:11.310Z,11.6
2023-01-17T15:28:58.632Z,11.6
2023-01-17T15:29:46.085Z,11.6
2023-01-17T15:30:33.406Z,11.6
2023-01-17T15:31:20.730Z,11.6
2023-01-17T15:32:08.161Z,11.6
2023-01-17T15:32:55.511Z,11.6
2023-01-17T15:33:42.843Z,11.6
2023-01-17T15:34:30.284Z,11.6
2023-01-17T15:35:17.642Z,11.6
2023-01-17T15:36:04.961Z,11.6
2023-01-17T15:36:52.371Z,11.6
2023-01-17T15:37:39.694Z,11.6
2023-01-17T15:38:27.038Z,11.6
2023-01-17T15:39:14.413Z,11.6
2023-01-17T15:40:01.730Z,11.6
2023-01-17T15:40:49.070Z,11.6